sensor_id;sensor_type;location;lat;lon;timestamp;P1;durP1;ratioP1;P2;durP2;ratioP2
15381;SDS011;7789;51.364;12.358;2023-05-07T00:05:00;7.87;;;6.97;;
15381;SDS011;7789;51.364;12.358;2023-05-07T00:10:18;8.63;;;7.77;;
15381;SDS011;7789;51.364;12.358;2023-05-07T00:15:26;8.53;;;7.37;;
15381;SDS011;7789;51.364;12.358;2023-05-07T00:20:32;10.10;;;6.97;;
15381;SDS011;7789;51.364;12.358;2023-05-07T00:25:46;7.30;;;6.50;;
15381;SDS011;7789;51.364;12.358;2023-05-07T00:30:53;8.40;;;6.73;;
15381;SDS011;7789;51.364;12.358;2023-05-07T00:36:06;7.30;;;6.60;;
15381;SDS011;7789;51.364;12.358;2023-05-07T00:41:17;9.13;;;6.73;;
15381;SDS011;7789;51.364;12.358;2023-05-07T00:46:23;8.37;;;6.93;;
15381;SDS011;7789;51.364;12.358;2023-05-07T00:51:29;8.30;;;6.43;;
15381;SDS011;7789;51.364;12.358;2023-05-07T00:56:37;8.27;;;7.47;;
15381;SDS011;7789;51.364;12.358;2023-05-07T01:01:49;8.87;;;7.60;;
15381;SDS011;7789;51.364;12.358;2023-05-07T01:07:01;10.00;;;7.77;;
15381;SDS011;7789;51.364;12.358;2023-05-07T01:12:10;10.90;;;8.03;;
15381;SDS011;7789;51.364;12.358;2023-05-07T01:17:17;9.40;;;8.50;;
15381;SDS011;7789;51.364;12.358;2023-05-07T01:22:28;12.67;;;8.40;;
15381;SDS011;7789;51.364;12.358;2023-05-07T01:27:34;9.77;;;8.33;;
15381;SDS011;7789;51.364;12.358;2023-05-07T01:32:42;10.30;;;9.10;;
15381;SDS011;7789;51.364;12.358;2023-05-07T01:37:56;9.53;;;8.53;;
15381;SDS011;7789;51.364;12.358;2023-05-07T01:43:00;11.60;;;10.40;;
15381;SDS011;7789;51.364;12.358;2023-05-07T01:48:11;11.33;;;10.20;;
15381;SDS011;7789;51.364;12.358;2023-05-07T01:53:20;10.97;;;9.80;;
15381;SDS011;7789;51.364;12.358;2023-05-07T01:58:26;11.60;;;10.50;;
15381;SDS011;7789;51.364;12.358;2023-05-07T02:03:32;12.40;;;11.20;;
15381;SDS011;7789;51.364;12.358;2023-05-07T02:08:41;12.33;;;10.70;;
15381;SDS011;7789;51.364;12.358;2023-05-07T02:13:52;12.23;;;11.00;;
15381;SDS011;7789;51.364;12.358;2023-05-07T02:18:58;12.37;;;11.17;;
15381;SDS011;7789;51.364;12.358;2023-05-07T02:24:07;12.37;;;11.07;;
15381;SDS011;7789;51.364;12.358;2023-05-07T02:29:14;12.23;;;11.03;;
15381;SDS011;7789;51.364;12.358;2023-05-07T02:34:19;12.20;;;11.00;;
15381;SDS011;7789;51.364;12.358;2023-05-07T02:39:27;12.20;;;10.93;;
15381;SDS011;7789;51.364;12.358;2023-05-07T02:44:32;12.63;;;11.43;;
15381;SDS011;7789;51.364;12.358;2023-05-07T02:49:40;12.43;;;11.13;;
15381;SDS011;7789;51.364;12.358;2023-05-07T02:54:46;12.93;;;11.57;;
15381;SDS011;7789;51.364;12.358;2023-05-07T02:59:58;12.23;;;10.90;;
15381;SDS011;7789;51.364;12.358;2023-05-07T03:05:07;12.07;;;10.87;;
15381;SDS011;7789;51.364;12.358;2023-05-07T03:10:15;12.37;;;11.13;;
15381;SDS011;7789;51.364;12.358;2023-05-07T03:15:20;11.67;;;10.57;;
15381;SDS011;7789;51.364;12.358;2023-05-07T03:20:25;12.73;;;11.43;;
15381;SDS011;7789;51.364;12.358;2023-05-07T03:25:34;11.43;;;10.20;;
15381;SDS011;7789;51.364;12.358;2023-05-07T03:30:40;12.40;;;11.17;;
15381;SDS011;7789;51.364;12.358;2023-05-07T03:35:48;10.97;;;9.93;;
15381;SDS011;7789;51.364;12.358;2023-05-07T03:40:55;11.60;;;10.40;;
15381;SDS011;7789;51.364;12.358;2023-05-07T03:46:04;12.37;;;11.00;;
15381;SDS011;7789;51.364;12.358;2023-05-07T03:51:10;13.37;;;11.20;;
15381;SDS011;7789;51.364;12.358;2023-05-07T03:56:18;11.93;;;10.73;;
15381;SDS011;7789;51.364;12.358;2023-05-07T04:01:25;12.37;;;10.97;;
15381;SDS011;7789;51.364;12.358;2023-05-07T04:06:29;13.43;;;11.33;;
15381;SDS011;7789;51.364;12.358;2023-05-07T04:11:41;13.10;;;11.10;;
15381;SDS011;7789;51.364;12.358;2023-05-07T04:16:46;12.23;;;10.90;;
15381;SDS011;7789;51.364;12.358;2023-05-07T04:21:53;13.43;;;12.07;;
15381;SDS011;7789;51.364;12.358;2023-05-07T04:26:59;13.70;;;11.33;;
15381;SDS011;7789;51.364;12.358;2023-05-07T04:32:08;12.63;;;10.97;;
15381;SDS011;7789;51.364;12.358;2023-05-07T04:37:18;13.87;;;11.57;;
15381;SDS011;7789;51.364;12.358;2023-05-07T04:42:23;14.93;;;10.47;;
15381;SDS011;7789;51.364;12.358;2023-05-07T04:47:29;12.00;;;10.00;;
15381;SDS011;7789;51.364;12.358;2023-05-07T04:52:33;12.83;;;11.00;;
15381;SDS011;7789;51.364;12.358;2023-05-07T04:57:53;12.27;;;10.00;;
15381;SDS011;7789;51.364;12.358;2023-05-07T05:03:03;10.93;;;9.33;;
15381;SDS011;7789;51.364;12.358;2023-05-07T05:08:08;9.40;;;8.43;;
15381;SDS011;7789;51.364;12.358;2023-05-07T05:13:17;10.93;;;8.97;;
15381;SDS011;7789;51.364;12.358;2023-05-07T05:18:22;10.30;;;9.30;;
15381;SDS011;7789;51.364;12.358;2023-05-07T05:23:26;9.43;;;8.27;;
15381;SDS011;7789;51.364;12.358;2023-05-07T05:28:36;9.87;;;8.90;;
15381;SDS011;7789;51.364;12.358;2023-05-07T05:33:41;9.23;;;8.33;;
15381;SDS011;7789;51.364;12.358;2023-05-07T05:38:51;9.53;;;8.23;;
15381;SDS011;7789;51.364;12.358;2023-05-07T05:44:04;9.50;;;7.67;;
15381;SDS011;7789;51.364;12.358;2023-05-07T05:49:11;8.37;;;7.50;;
15381;SDS011;7789;51.364;12.358;2023-05-07T05:54:17;8.50;;;7.23;;
15381;SDS011;7789;51.364;12.358;2023-05-07T05:59:29;8.23;;;6.63;;
15381;SDS011;7789;51.364;12.358;2023-05-07T06:04:38;7.93;;;6.57;;
15381;SDS011;7789;51.364;12.358;2023-05-07T06:09:47;7.67;;;6.83;;
15381;SDS011;7789;51.364;12.358;2023-05-07T06:14:54;8.30;;;7.43;;
15381;SDS011;7789;51.364;12.358;2023-05-07T06:19:59;8.53;;;7.17;;
15381;SDS011;7789;51.364;12.358;2023-05-07T06:25:04;8.63;;;7.73;;
15381;SDS011;7789;51.364;12.358;2023-05-07T06:30:11;9.03;;;8.13;;
15381;SDS011;7789;51.364;12.358;2023-05-07T06:35:17;13.03;;;8.33;;
15381;SDS011;7789;51.364;12.358;2023-05-07T06:40:21;9.07;;;7.57;;
15381;SDS011;7789;51.364;12.358;2023-05-07T06:45:29;9.47;;;8.47;;
15381;SDS011;7789;51.364;12.358;2023-05-07T06:50:35;10.13;;;7.93;;
15381;SDS011;7789;51.364;12.358;2023-05-07T06:55:40;9.83;;;8.83;;
15381;SDS011;7789;51.364;12.358;2023-05-07T07:00:50;9.83;;;8.10;;
15381;SDS011;7789;51.364;12.358;2023-05-07T07:05:59;7.57;;;6.77;;
15381;SDS011;7789;51.364;12.358;2023-05-07T07:11:12;7.80;;;7.00;;
15381;SDS011;7789;51.364;12.358;2023-05-07T07:16:22;7.30;;;6.53;;
15381;SDS011;7789;51.364;12.358;2023-05-07T07:21:29;6.43;;;5.57;;
15381;SDS011;7789;51.364;12.358;2023-05-07T07:26:38;6.37;;;5.77;;
15381;SDS011;7789;51.364;12.358;2023-05-07T07:32:02;6.90;;;5.70;;
15381;SDS011;7789;51.364;12.358;2023-05-07T07:37:08;6.87;;;6.17;;
15381;SDS011;7789;51.364;12.358;2023-05-07T07:42:14;5.63;;;5.00;;
15381;SDS011;7789;51.364;12.358;2023-05-07T07:47:23;5.73;;;5.13;;
15381;SDS011;7789;51.364;12.358;2023-05-07T07:52:31;4.80;;;4.40;;
15381;SDS011;7789;51.364;12.358;2023-05-07T07:57:38;4.80;;;4.40;;
15381;SDS011;7789;51.364;12.358;2023-05-07T08:02:48;5.60;;;5.10;;
15381;SDS011;7789;51.364;12.358;2023-05-07T08:07:53;4.10;;;3.80;;
15381;SDS011;7789;51.364;12.358;2023-05-07T08:13:00;3.93;;;3.53;;
15381;SDS011;7789;51.364;12.358;2023-05-07T08:18:08;3.60;;;3.30;;
15381;SDS011;7789;51.364;12.358;2023-05-07T08:23:14;4.10;;;3.80;;
15381;SDS011;7789;51.364;12.358;2023-05-07T08:28:20;4.00;;;3.40;;
15381;SDS011;7789;51.364;12.358;2023-05-07T08:33:30;3.53;;;3.23;;
15381;SDS011;7789;51.364;12.358;2023-05-07T08:38:38;4.13;;;3.47;;
15381;SDS011;7789;51.364;12.358;2023-05-07T08:43:46;3.97;;;3.57;;
15381;SDS011;7789;51.364;12.358;2023-05-07T08:48:55;3.57;;;3.23;;
15381;SDS011;7789;51.364;12.358;2023-05-07T08:54:08;3.67;;;3.37;;
15381;SDS011;7789;51.364;12.358;2023-05-07T08:59:19;3.63;;;3.33;;
15381;SDS011;7789;51.364;12.358;2023-05-07T09:04:33;4.00;;;3.63;;
15381;SDS011;7789;51.364;12.358;2023-05-07T09:09:37;4.25;;;3.85;;
15381;SDS011;7789;51.364;12.358;2023-05-07T09:14:52;4.05;;;3.75;;
15381;SDS011;7789;51.364;12.358;2023-05-07T09:20:03;4.47;;;4.07;;
15381;SDS011;7789;51.364;12.358;2023-05-07T09:25:13;4.40;;;4.00;;
15381;SDS011;7789;51.364;12.358;2023-05-07T09:30:19;4.20;;;3.80;;
15381;SDS011;7789;51.364;12.358;2023-05-07T09:35:29;5.35;;;4.10;;
15381;SDS011;7789;51.364;12.358;2023-05-07T09:40:36;5.05;;;4.55;;
15381;SDS011;7789;51.364;12.358;2023-05-07T09:45:44;4.47;;;4.07;;
15381;SDS011;7789;51.364;12.358;2023-05-07T09:51:01;4.30;;;3.90;;
15381;SDS011;7789;51.364;12.358;2023-05-07T09:56:10;4.30;;;3.80;;
15381;SDS011;7789;51.364;12.358;2023-05-07T10:01:24;6.07;;;4.22;;
15381;SDS011;7789;51.364;12.358;2023-05-07T10:07:00;5.20;;;4.37;;
15381;SDS011;7789;51.364;12.358;2023-05-07T10:12:20;4.10;;;3.63;;
15381;SDS011;7789;51.364;12.358;2023-05-07T10:17:26;3.90;;;3.50;;
15381;SDS011;7789;51.364;12.358;2023-05-07T10:22:45;3.67;;;3.30;;
15381;SDS011;7789;51.364;12.358;2023-05-07T10:27:55;3.72;;;3.25;;
15381;SDS011;7789;51.364;12.358;2023-05-07T10:33:05;5.18;;;3.58;;
15381;SDS011;7789;51.364;12.358;2023-05-07T10:38:17;3.65;;;3.30;;
15381;SDS011;7789;51.364;12.358;2023-05-07T10:43:27;3.30;;;2.97;;
15381;SDS011;7789;51.364;12.358;2023-05-07T10:54:21;3.70;;;3.40;;
15381;SDS011;7789;51.364;12.358;2023-05-07T10:59:36;4.35;;;4.00;;
15381;SDS011;7789;51.364;12.358;2023-05-07T11:10:28;5.57;;;4.47;;
15381;SDS011;7789;51.364;12.358;2023-05-07T11:15:54;6.80;;;4.80;;
15381;SDS011;7789;51.364;12.358;2023-05-07T11:21:01;4.13;;;3.83;;
15381;SDS011;7789;51.364;12.358;2023-05-07T11:26:10;5.13;;;4.43;;
15381;SDS011;7789;51.364;12.358;2023-05-07T11:31:14;4.40;;;4.00;;
15381;SDS011;7789;51.364;12.358;2023-05-07T11:36:41;3.72;;;3.42;;
15381;SDS011;7789;51.364;12.358;2023-05-07T11:41:50;4.10;;;3.70;;
15381;SDS011;7789;51.364;12.358;2023-05-07T11:46:57;4.97;;;3.60;;
15381;SDS011;7789;51.364;12.358;2023-05-07T11:52:05;4.07;;;3.70;;
15381;SDS011;7789;51.364;12.358;2023-05-07T11:57:16;4.47;;;3.50;;
15381;SDS011;7789;51.364;12.358;2023-05-07T12:02:20;4.65;;;3.30;;
15381;SDS011;7789;51.364;12.358;2023-05-07T12:07:36;4.40;;;4.00;;
15381;SDS011;7789;51.364;12.358;2023-05-07T12:12:54;4.60;;;4.20;;
15381;SDS011;7789;51.364;12.358;2023-05-07T12:18:04;4.03;;;3.63;;
15381;SDS011;7789;51.364;12.358;2023-05-07T12:23:10;4.18;;;3.78;;
15381;SDS011;7789;51.364;12.358;2023-05-07T12:28:19;4.10;;;3.70;;
15381;SDS011;7789;51.364;12.358;2023-05-07T12:33:28;4.95;;;4.15;;
15381;SDS011;7789;51.364;12.358;2023-05-07T12:38:37;4.82;;;4.40;;
15381;SDS011;7789;51.364;12.358;2023-05-07T12:43:45;4.63;;;4.18;;
15381;SDS011;7789;51.364;12.358;2023-05-07T12:48:53;3.72;;;3.20;;
15381;SDS011;7789;51.364;12.358;2023-05-07T12:54:10;3.97;;;3.10;;
15381;SDS011;7789;51.364;12.358;2023-05-07T12:59:18;3.40;;;3.10;;
15381;SDS011;7789;51.364;12.358;2023-05-07T13:04:34;3.70;;;3.10;;
15381;SDS011;7789;51.364;12.358;2023-05-07T13:09:40;3.38;;;2.90;;
15381;SDS011;7789;51.364;12.358;2023-05-07T13:14:52;3.83;;;3.08;;
15381;SDS011;7789;51.364;12.358;2023-05-07T13:19:57;3.80;;;3.50;;
15381;SDS011;7789;51.364;12.358;2023-05-07T13:25:04;3.47;;;3.15;;
15381;SDS011;7789;51.364;12.358;2023-05-07T13:35:43;2.83;;;2.63;;
15381;SDS011;7789;51.364;12.358;2023-05-07T13:40:49;2.92;;;2.70;;
15381;SDS011;7789;51.364;12.358;2023-05-07T13:45:58;3.05;;;2.67;;
15381;SDS011;7789;51.364;12.358;2023-05-07T13:51:07;2.30;;;2.10;;
15381;SDS011;7789;51.364;12.358;2023-05-07T13:56:16;4.90;;;2.70;;
15381;SDS011;7789;51.364;12.358;2023-05-07T14:01:25;2.72;;;2.45;;
15381;SDS011;7789;51.364;12.358;2023-05-07T14:06:33;3.75;;;2.17;;
15381;SDS011;7789;51.364;12.358;2023-05-07T14:11:47;2.42;;;2.10;;
15381;SDS011;7789;51.364;12.358;2023-05-07T14:17:06;2.17;;;1.98;;
15381;SDS011;7789;51.364;12.358;2023-05-07T14:22:17;2.17;;;2.03;;
15381;SDS011;7789;51.364;12.358;2023-05-07T14:27:24;3.20;;;1.83;;
15381;SDS011;7789;51.364;12.358;2023-05-07T14:32:31;5.40;;;1.80;;
15381;SDS011;7789;51.364;12.358;2023-05-07T14:37:36;3.35;;;1.98;;
15381;SDS011;7789;51.364;12.358;2023-05-07T14:42:46;2.50;;;1.60;;
15381;SDS011;7789;51.364;12.358;2023-05-07T14:47:54;3.38;;;1.40;;
15381;SDS011;7789;51.364;12.358;2023-05-07T14:52:59;1.85;;;1.67;;
15381;SDS011;7789;51.364;12.358;2023-05-07T14:58:05;2.55;;;1.90;;
15381;SDS011;7789;51.364;12.358;2023-05-07T15:03:13;2.00;;;1.90;;
15381;SDS011;7789;51.364;12.358;2023-05-07T15:08:20;1.73;;;1.63;;
15381;SDS011;7789;51.364;12.358;2023-05-07T15:13:26;1.65;;;1.55;;
15381;SDS011;7789;51.364;12.358;2023-05-07T15:18:36;1.63;;;1.52;;
15381;SDS011;7789;51.364;12.358;2023-05-07T15:23:45;4.07;;;2.42;;
15381;SDS011;7789;51.364;12.358;2023-05-07T15:28:51;2.35;;;1.88;;
15381;SDS011;7789;51.364;12.358;2023-05-07T15:34:01;2.17;;;1.77;;
15381;SDS011;7789;51.364;12.358;2023-05-07T15:39:06;2.22;;;2.03;;
15381;SDS011;7789;51.364;12.358;2023-05-07T15:44:20;3.33;;;2.15;;
15381;SDS011;7789;51.364;12.358;2023-05-07T15:49:36;2.88;;;2.20;;
15381;SDS011;7789;51.364;12.358;2023-05-07T15:54:45;5.72;;;2.10;;
15381;SDS011;7789;51.364;12.358;2023-05-07T15:59:52;2.53;;;2.33;;
15381;SDS011;7789;51.364;12.358;2023-05-07T16:04:58;2.55;;;2.35;;
15381;SDS011;7789;51.364;12.358;2023-05-07T16:10:04;2.50;;;2.30;;
15381;SDS011;7789;51.364;12.358;2023-05-07T16:15:24;2.70;;;2.50;;
15381;SDS011;7789;51.364;12.358;2023-05-07T16:20:32;2.75;;;2.47;;
15381;SDS011;7789;51.364;12.358;2023-05-07T16:25:43;2.67;;;2.47;;
15381;SDS011;7789;51.364;12.358;2023-05-07T16:30:50;4.97;;;2.83;;
15381;SDS011;7789;51.364;12.358;2023-05-07T16:35:57;2.72;;;2.53;;
15381;SDS011;7789;51.364;12.358;2023-05-07T16:41:08;5.22;;;2.80;;
15381;SDS011;7789;51.364;12.358;2023-05-07T16:46:22;3.95;;;3.13;;
15381;SDS011;7789;51.364;12.358;2023-05-07T16:51:27;4.57;;;3.50;;
15381;SDS011;7789;51.364;12.358;2023-05-07T17:02:00;3.63;;;3.33;;
15381;SDS011;7789;51.364;12.358;2023-05-07T17:07:14;4.28;;;3.30;;
15381;SDS011;7789;51.364;12.358;2023-05-07T17:12:25;3.70;;;3.40;;
15381;SDS011;7789;51.364;12.358;2023-05-07T17:17:38;3.30;;;2.97;;
15381;SDS011;7789;51.364;12.358;2023-05-07T17:22:47;8.93;;;2.97;;
15381;SDS011;7789;51.364;12.358;2023-05-07T17:27:58;4.88;;;3.03;;
15381;SDS011;7789;51.364;12.358;2023-05-07T17:33:05;3.20;;;2.90;;
15381;SDS011;7789;51.364;12.358;2023-05-07T17:38:25;3.38;;;3.08;;
15381;SDS011;7789;51.364;12.358;2023-05-07T17:43:31;4.15;;;3.78;;
15381;SDS011;7789;51.364;12.358;2023-05-07T17:48:43;4.13;;;3.47;;
15381;SDS011;7789;51.364;12.358;2023-05-07T17:53:51;4.00;;;3.60;;
15381;SDS011;7789;51.364;12.358;2023-05-07T17:58:56;4.20;;;3.80;;
15381;SDS011;7789;51.364;12.358;2023-05-07T18:04:07;3.38;;;3.05;;
15381;SDS011;7789;51.364;12.358;2023-05-07T18:09:18;3.42;;;3.15;;
15381;SDS011;7789;51.364;12.358;2023-05-07T18:14:26;5.20;;;3.35;;
15381;SDS011;7789;51.364;12.358;2023-05-07T18:19:32;4.13;;;3.25;;
15381;SDS011;7789;51.364;12.358;2023-05-07T18:24:43;4.57;;;3.40;;
15381;SDS011;7789;51.364;12.358;2023-05-07T18:29:49;3.67;;;3.28;;
15381;SDS011;7789;51.364;12.358;2023-05-07T18:34:57;3.30;;;3.00;;
15381;SDS011;7789;51.364;12.358;2023-05-07T18:40:04;3.47;;;3.17;;
15381;SDS011;7789;51.364;12.358;2023-05-07T18:45:11;4.37;;;3.43;;
15381;SDS011;7789;51.364;12.358;2023-05-07T18:50:18;3.93;;;3.50;;
15381;SDS011;7789;51.364;12.358;2023-05-07T18:55:28;4.60;;;3.53;;
15381;SDS011;7789;51.364;12.358;2023-05-07T19:00:35;3.87;;;3.47;;
15381;SDS011;7789;51.364;12.358;2023-05-07T19:05:41;3.80;;;3.37;;
15381;SDS011;7789;51.364;12.358;2023-05-07T19:10:52;3.40;;;3.10;;
15381;SDS011;7789;51.364;12.358;2023-05-07T19:16:04;4.10;;;3.27;;
15381;SDS011;7789;51.364;12.358;2023-05-07T19:21:15;5.90;;;3.43;;
15381;SDS011;7789;51.364;12.358;2023-05-07T19:26:20;4.53;;;4.00;;
15381;SDS011;7789;51.364;12.358;2023-05-07T19:31:27;4.53;;;3.70;;
15381;SDS011;7789;51.364;12.358;2023-05-07T19:36:36;4.83;;;3.47;;
15381;SDS011;7789;51.364;12.358;2023-05-07T19:47:10;3.63;;;3.30;;
15381;SDS011;7789;51.364;12.358;2023-05-07T19:52:14;4.03;;;3.63;;
15381;SDS011;7789;51.364;12.358;2023-05-07T19:57:23;3.27;;;2.97;;
15381;SDS011;7789;51.364;12.358;2023-05-07T20:02:30;4.27;;;3.87;;
15381;SDS011;7789;51.364;12.358;2023-05-07T20:07:38;4.20;;;3.80;;
15381;SDS011;7789;51.364;12.358;2023-05-07T20:12:48;3.97;;;3.63;;
15381;SDS011;7789;51.364;12.358;2023-05-07T20:17:55;3.70;;;3.40;;
15381;SDS011;7789;51.364;12.358;2023-05-07T20:23:00;4.40;;;3.77;;
15381;SDS011;7789;51.364;12.358;2023-05-07T20:28:10;3.70;;;3.40;;
15381;SDS011;7789;51.364;12.358;2023-05-07T20:33:18;4.67;;;3.80;;
15381;SDS011;7789;51.364;12.358;2023-05-07T20:38:23;3.77;;;3.30;;
15381;SDS011;7789;51.364;12.358;2023-05-07T20:43:35;5.37;;;3.00;;
15381;SDS011;7789;51.364;12.358;2023-05-07T20:48:40;4.93;;;4.00;;
15381;SDS011;7789;51.364;12.358;2023-05-07T20:53:55;3.80;;;3.40;;
15381;SDS011;7789;51.364;12.358;2023-05-07T20:59:12;4.47;;;3.80;;
15381;SDS011;7789;51.364;12.358;2023-05-07T21:04:22;3.77;;;3.47;;
15381;SDS011;7789;51.364;12.358;2023-05-07T21:09:27;4.53;;;3.60;;
15381;SDS011;7789;51.364;12.358;2023-05-07T21:14:33;11.70;;;4.23;;
15381;SDS011;7789;51.364;12.358;2023-05-07T21:19:38;4.20;;;3.80;;
15381;SDS011;7789;51.364;12.358;2023-05-07T21:24:44;3.97;;;3.57;;
15381;SDS011;7789;51.364;12.358;2023-05-07T21:29:52;5.03;;;4.20;;
15381;SDS011;7789;51.364;12.358;2023-05-07T21:34:59;4.80;;;4.30;;
15381;SDS011;7789;51.364;12.358;2023-05-07T21:40:08;4.00;;;3.70;;
15381;SDS011;7789;51.364;12.358;2023-05-07T21:45:16;5.20;;;3.97;;
15381;SDS011;7789;51.364;12.358;2023-05-07T21:50:22;4.90;;;4.30;;
15381;SDS011;7789;51.364;12.358;2023-05-07T21:55:27;6.70;;;3.90;;
15381;SDS011;7789;51.364;12.358;2023-05-07T22:00:33;4.43;;;4.03;;
15381;SDS011;7789;51.364;12.358;2023-05-07T22:05:42;5.13;;;4.00;;
15381;SDS011;7789;51.364;12.358;2023-05-07T22:10:51;4.70;;;4.30;;
15381;SDS011;7789;51.364;12.358;2023-05-07T22:16:13;5.30;;;4.43;;
15381;SDS011;7789;51.364;12.358;2023-05-07T22:21:20;5.00;;;4.50;;
15381;SDS011;7789;51.364;12.358;2023-05-07T22:26:25;4.60;;;4.20;;
15381;SDS011;7789;51.364;12.358;2023-05-07T22:31:35;5.03;;;4.50;;
15381;SDS011;7789;51.364;12.358;2023-05-07T22:36:40;4.23;;;3.83;;
15381;SDS011;7789;51.364;12.358;2023-05-07T22:41:46;6.40;;;4.40;;
15381;SDS011;7789;51.364;12.358;2023-05-07T22:46:53;4.30;;;3.90;;
15381;SDS011;7789;51.364;12.358;2023-05-07T22:52:00;4.10;;;3.70;;
15381;SDS011;7789;51.364;12.358;2023-05-07T22:57:05;4.23;;;3.83;;
15381;SDS011;7789;51.364;12.358;2023-05-07T23:02:11;5.00;;;4.50;;
15381;SDS011;7789;51.364;12.358;2023-05-07T23:07:17;5.70;;;4.20;;
15381;SDS011;7789;51.364;12.358;2023-05-07T23:12:24;5.60;;;4.27;;
15381;SDS011;7789;51.364;12.358;2023-05-07T23:17:31;4.77;;;3.73;;
15381;SDS011;7789;51.364;12.358;2023-05-07T23:22:35;4.40;;;3.90;;
15381;SDS011;7789;51.364;12.358;2023-05-07T23:27:40;4.50;;;4.10;;
15381;SDS011;7789;51.364;12.358;2023-05-07T23:33:11;5.33;;;4.23;;
15381;SDS011;7789;51.364;12.358;2023-05-07T23:38:16;4.27;;;3.87;;
15381;SDS011;7789;51.364;12.358;2023-05-07T23:43:23;4.43;;;4.03;;
15381;SDS011;7789;51.364;12.358;2023-05-07T23:48:33;6.70;;;3.77;;
15381;SDS011;7789;51.364;12.358;2023-05-07T23:53:39;4.50;;;3.93;;
15381;SDS011;7789;51.364;12.358;2023-05-07T23:58:50;4.80;;;4.10;;
